sensor_id;sensor_type;location;lat;lon;timestamp;pressure;altitude;pressure_sealevel;temperature;humidity
47166;BME280;32930;51.112;13.762;2023-05-16T03:30:24;98953.78;;;13.79;86.20
47166;BME280;32930;51.112;13.762;2023-05-16T03:32:51;98958.50;;;14.02;85.03
47166;BME280;32930;51.112;13.762;2023-05-16T03:35:16;98960.97;;;14.09;84.38
47166;BME280;32930;51.112;13.762;2023-05-16T03:37:42;98959.41;;;14.01;84.86
47166;BME280;32930;51.112;13.762;2023-05-16T03:40:08;98964.50;;;14.04;84.86
47166;BME280;32930;51.112;13.762;2023-05-16T03:42:34;98969.38;;;14.19;84.52
47166;BME280;32930;51.112;13.762;2023-05-16T03:45:06;98966.19;;;14.06;84.20
47166;BME280;32930;51.112;13.762;2023-05-16T03:47:32;98971.06;;;14.20;83.32
47166;BME280;32930;51.112;13.762;2023-05-16T03:49:58;98967.91;;;14.04;84.07
47166;BME280;32930;51.112;13.762;2023-05-16T03:52:24;98977.28;;;14.08;83.84
47166;BME280;32930;51.112;13.762;2023-05-16T03:57:18;98979.66;;;14.21;84.47
47166;BME280;32930;51.112;13.762;2023-05-16T03:59:46;98988.28;;;14.18;83.89
47166;BME280;32930;51.112;13.762;2023-05-16T04:02:11;98988.13;;;14.29;83.69
47166;BME280;32930;51.112;13.762;2023-05-16T04:04:37;98992.53;;;14.22;83.69
47166;BME280;32930;51.112;13.762;2023-05-16T04:07:03;98995.03;;;14.27;83.52
47166;BME280;32930;51.112;13.762;2023-05-16T04:09:28;98995.69;;;14.38;82.63
47166;BME280;32930;51.112;13.762;2023-05-16T05:10:21;99065.41;;;14.33;81.21
47166;BME280;32930;51.112;13.762;2023-05-16T05:12:46;99065.72;;;14.15;80.87
47166;BME280;32930;51.112;13.762;2023-05-16T05:15:15;99075.06;;;14.24;82.33
47166;BME280;32930;51.112;13.762;2023-05-16T05:17:41;99087.72;;;14.37;80.65
47166;BME280;32930;51.112;13.762;2023-05-16T05:20:07;99085.31;;;14.27;80.85
47166;BME280;32930;51.112;13.762;2023-05-16T05:22:33;99091.38;;;14.24;81.43
47166;BME280;32930;51.112;13.762;2023-05-16T05:24:58;99094.69;;;14.32;81.14
47166;BME280;32930;51.112;13.762;2023-05-16T05:27:24;99088.75;;;14.27;81.49
47166;BME280;32930;51.112;13.762;2023-05-16T05:29:50;99088.25;;;14.05;82.16
47166;BME280;32930;51.112;13.762;2023-05-16T05:32:15;99103.81;;;14.01;81.87
47166;BME280;32930;51.112;13.762;2023-05-16T05:34:41;99093.94;;;14.26;80.45
47166;BME280;32930;51.112;13.762;2023-05-16T05:37:06;99092.47;;;14.11;81.29
47166;BME280;32930;51.112;13.762;2023-05-16T05:39:32;99092.56;;;14.05;81.57
47166;BME280;32930;51.112;13.762;2023-05-16T05:41:58;99095.09;;;14.09;81.64
47166;BME280;32930;51.112;13.762;2023-05-16T05:44:23;99106.31;;;14.05;81.62
47166;BME280;32930;51.112;13.762;2023-05-16T05:46:56;99112.50;;;13.95;82.79
47166;BME280;32930;51.112;13.762;2023-05-16T05:49:23;99110.53;;;14.11;81.03
47166;BME280;32930;51.112;13.762;2023-05-16T05:51:49;99120.03;;;14.06;80.67
47166;BME280;32930;51.112;13.762;2023-05-16T05:54:18;99125.09;;;14.12;80.35
47166;BME280;32930;51.112;13.762;2023-05-16T05:56:44;99133.88;;;14.03;80.98
47166;BME280;32930;51.112;13.762;2023-05-16T05:59:10;99128.72;;;14.02;80.46
47166;BME280;32930;51.112;13.762;2023-05-16T06:01:35;99136.22;;;14.17;79.78
47166;BME280;32930;51.112;13.762;2023-05-16T06:04:02;99132.16;;;14.02;81.77
47166;BME280;32930;51.112;13.762;2023-05-16T06:06:27;99141.56;;;14.06;81.55
47166;BME280;32930;51.112;13.762;2023-05-16T06:08:53;99135.78;;;13.90;80.79
47166;BME280;32930;51.112;13.762;2023-05-16T06:11:19;99135.75;;;13.92;82.04
47166;BME280;32930;51.112;13.762;2023-05-16T06:13:46;99136.63;;;13.89;82.30
47166;BME280;32930;51.112;13.762;2023-05-16T06:16:12;99146.09;;;13.89;81.13
47166;BME280;32930;51.112;13.762;2023-05-16T06:18:37;99149.66;;;13.80;81.44
47166;BME280;32930;51.112;13.762;2023-05-16T06:21:04;99144.56;;;13.77;81.41
47166;BME280;32930;51.112;13.762;2023-05-16T06:30:13;99155.63;;;13.84;81.35
47166;BME280;32930;51.112;13.762;2023-05-16T06:32:42;99155.63;;;13.85;81.62
47166;BME280;32930;51.112;13.762;2023-05-16T06:54:35;99175.53;;;13.76;79.48
47166;BME280;32930;51.112;13.762;2023-05-16T06:57:01;99179.91;;;13.67;79.16
47166;BME280;32930;51.112;13.762;2023-05-16T06:59:28;99183.25;;;13.76;80.16
47166;BME280;32930;51.112;13.762;2023-05-16T07:01:53;99178.31;;;13.60;79.83
47166;BME280;32930;51.112;13.762;2023-05-16T07:04:19;99181.47;;;13.81;78.36
47166;BME280;32930;51.112;13.762;2023-05-16T07:06:45;99178.91;;;13.81;77.82
47166;BME280;32930;51.112;13.762;2023-05-16T07:09:10;99182.66;;;13.57;79.83
47166;BME280;32930;51.112;13.762;2023-05-16T07:17:27;99176.53;;;13.65;79.13
47166;BME280;32930;51.112;13.762;2023-05-16T07:19:52;99180.72;;;13.71;78.46
47166;BME280;32930;51.112;13.762;2023-05-16T07:25:27;99174.91;;;13.57;79.64
47166;BME280;32930;51.112;13.762;2023-05-16T07:27:53;99169.88;;;13.46;79.64
47166;BME280;32930;51.112;13.762;2023-05-16T07:30:21;99176.84;;;13.39;80.29
47166;BME280;32930;51.112;13.762;2023-05-16T07:36:13;99192.09;;;13.56;79.00
47166;BME280;32930;51.112;13.762;2023-05-16T07:38:39;99194.84;;;13.44;79.53
47166;BME280;32930;51.112;13.762;2023-05-16T07:41:04;99186.16;;;13.51;80.15
47166;BME280;32930;51.112;13.762;2023-05-16T07:43:30;99188.72;;;13.53;81.58
47166;BME280;32930;51.112;13.762;2023-05-16T07:48:25;99195.50;;;13.58;79.41
47166;BME280;32930;51.112;13.762;2023-05-16T07:50:51;99202.53;;;13.47;81.01
47166;BME280;32930;51.112;13.762;2023-05-16T07:53:16;99207.75;;;13.41;79.54
47166;BME280;32930;51.112;13.762;2023-05-16T07:55:42;99197.47;;;13.38;79.26
47166;BME280;32930;51.112;13.762;2023-05-16T07:58:08;99199.94;;;13.45;81.10
47166;BME280;32930;51.112;13.762;2023-05-16T08:00:33;99200.03;;;13.41;80.35
47166;BME280;32930;51.112;13.762;2023-05-16T08:02:59;99198.25;;;13.44;79.78
47166;BME280;32930;51.112;13.762;2023-05-16T08:05:25;99199.81;;;13.58;79.37
47166;BME280;32930;51.112;13.762;2023-05-16T08:07:50;99209.13;;;13.68;78.18
47166;BME280;32930;51.112;13.762;2023-05-16T08:10:16;99218.81;;;13.49;79.77
47166;BME280;32930;51.112;13.762;2023-05-16T08:12:41;99217.19;;;13.42;80.00
47166;BME280;32930;51.112;13.762;2023-05-16T08:15:07;99226.75;;;13.34;81.30
47166;BME280;32930;51.112;13.762;2023-05-16T08:17:33;99230.22;;;13.28;80.73
47166;BME280;32930;51.112;13.762;2023-05-16T08:19:59;99231.81;;;13.40;80.78
47166;BME280;32930;51.112;13.762;2023-05-16T08:22:26;99236.06;;;13.44;79.92
47166;BME280;32930;51.112;13.762;2023-05-16T08:24:52;99237.09;;;13.26;79.23
47166;BME280;32930;51.112;13.762;2023-05-16T08:27:22;99243.69;;;13.53;78.25
47166;BME280;32930;51.112;13.762;2023-05-16T08:29:48;99253.53;;;13.11;79.59
47166;BME280;32930;51.112;13.762;2023-05-16T08:32:13;99256.00;;;13.28;80.02
47166;BME280;32930;51.112;13.762;2023-05-16T08:34:39;99249.91;;;13.34;79.50
47166;BME280;32930;51.112;13.762;2023-05-16T08:37:04;99259.53;;;13.13;80.36
47166;BME280;32930;51.112;13.762;2023-05-16T08:39:30;99254.28;;;13.22;80.70
47166;BME280;32930;51.112;13.762;2023-05-16T08:41:56;99268.00;;;13.23;81.12
47166;BME280;32930;51.112;13.762;2023-05-16T08:44:23;99261.13;;;13.23;81.70
47166;BME280;32930;51.112;13.762;2023-05-16T08:46:50;99265.31;;;13.40;80.82
47166;BME280;32930;51.112;13.762;2023-05-16T08:49:17;99266.22;;;13.34;80.85
47166;BME280;32930;51.112;13.762;2023-05-16T08:51:45;99267.03;;;13.36;80.43
47166;BME280;32930;51.112;13.762;2023-05-16T08:54:13;99272.22;;;13.35;80.71
47166;BME280;32930;51.112;13.762;2023-05-16T08:56:43;99275.53;;;13.46;80.78
47166;BME280;32930;51.112;13.762;2023-05-16T08:59:11;99281.63;;;13.40;80.62
47166;BME280;32930;51.112;13.762;2023-05-16T09:04:18;99283.94;;;13.63;79.98
47166;BME280;32930;51.112;13.762;2023-05-16T09:06:44;99294.44;;;13.45;80.72
47166;BME280;32930;51.112;13.762;2023-05-16T09:19:15;99285.97;;;13.37;80.65
47166;BME280;32930;51.112;13.762;2023-05-16T09:21:41;99280.84;;;13.34;81.18
47166;BME280;32930;51.112;13.762;2023-05-16T10:34:11;99328.56;;;13.68;79.30
47166;BME280;32930;51.112;13.762;2023-05-16T10:36:37;99334.78;;;13.46;79.54
47166;BME280;32930;51.112;13.762;2023-05-16T10:39:04;99322.69;;;13.54;78.95
47166;BME280;32930;51.112;13.762;2023-05-16T10:41:32;99327.78;;;13.62;79.73
47166;BME280;32930;51.112;13.762;2023-05-16T10:43:59;99321.84;;;13.52;79.29
47166;BME280;32930;51.112;13.762;2023-05-16T10:46:27;99324.44;;;13.49;79.29
47166;BME280;32930;51.112;13.762;2023-05-16T10:48:55;99330.41;;;13.57;79.18
47166;BME280;32930;51.112;13.762;2023-05-16T10:53:46;99322.53;;;13.68;79.29
47166;BME280;32930;51.112;13.762;2023-05-16T10:56:12;99315.47;;;13.84;77.83
47166;BME280;32930;51.112;13.762;2023-05-16T11:06:24;99326.63;;;13.86;78.11
47166;BME280;32930;51.112;13.762;2023-05-16T11:09:20;99328.59;;;13.64;77.43
47166;BME280;32930;51.112;13.762;2023-05-16T11:12:02;99326.00;;;13.67;77.55
47166;BME280;32930;51.112;13.762;2023-05-16T11:17:19;99327.44;;;13.89;76.49
47166;BME280;32930;51.112;13.762;2023-05-16T11:19:56;99324.66;;;14.08;77.18
47166;BME280;32930;51.112;13.762;2023-05-16T11:22:27;99331.53;;;14.06;75.69
47166;BME280;32930;51.112;13.762;2023-05-16T11:25:07;99323.66;;;14.18;74.49
47166;BME280;32930;51.112;13.762;2023-05-16T11:27:44;99320.25;;;14.14;75.74
47166;BME280;32930;51.112;13.762;2023-05-16T11:30:15;99316.94;;;14.06;76.07
47166;BME280;32930;51.112;13.762;2023-05-16T11:32:47;99321.56;;;14.46;74.62
47166;BME280;32930;51.112;13.762;2023-05-16T11:35:14;99319.31;;;14.22;75.55
47166;BME280;32930;51.112;13.762;2023-05-16T11:37:41;99312.41;;;14.24;75.49
47166;BME280;32930;51.112;13.762;2023-05-16T11:40:09;99305.72;;;14.09;74.34
47166;BME280;32930;51.112;13.762;2023-05-16T11:42:39;99312.06;;;14.51;75.17
47166;BME280;32930;51.112;13.762;2023-05-16T11:45:07;99304.47;;;14.39;73.93
47166;BME280;32930;51.112;13.762;2023-05-16T11:47:38;99301.72;;;14.50;74.06
47166;BME280;32930;51.112;13.762;2023-05-16T11:50:15;99296.69;;;14.41;73.75
47166;BME280;32930;51.112;13.762;2023-05-16T11:52:44;99298.13;;;14.63;74.66
47166;BME280;32930;51.112;13.762;2023-05-16T11:55:10;99305.91;;;14.58;73.42
47166;BME280;32930;51.112;13.762;2023-05-16T11:57:38;99302.59;;;14.49;73.55
47166;BME280;32930;51.112;13.762;2023-05-16T12:00:07;99301.72;;;14.50;72.59
47166;BME280;32930;51.112;13.762;2023-05-16T12:02:38;99312.06;;;14.48;73.03
47166;BME280;32930;51.112;13.762;2023-05-16T12:05:10;99305.91;;;14.60;72.68
47166;BME280;32930;51.112;13.762;2023-05-16T12:07:36;99304.28;;;14.54;72.23
47166;BME280;32930;51.112;13.762;2023-05-16T12:10:09;99297.47;;;14.47;72.40
47166;BME280;32930;51.112;13.762;2023-05-16T12:12:36;99302.50;;;14.58;72.52
47166;BME280;32930;51.112;13.762;2023-05-16T12:15:03;99300.19;;;14.38;72.77
47166;BME280;32930;51.112;13.762;2023-05-16T12:17:32;99304.28;;;14.53;74.00
47166;BME280;32930;51.112;13.762;2023-05-16T12:19:59;99301.00;;;14.40;72.15
47166;BME280;32930;51.112;13.762;2023-05-16T12:22:25;99294.25;;;14.31;72.74
47166;BME280;32930;51.112;13.762;2023-05-16T12:24:50;99299.34;;;14.36;73.07
47166;BME280;32930;51.112;13.762;2023-05-16T12:27:24;99310.31;;;14.52;72.90
47166;BME280;32930;51.112;13.762;2023-05-16T12:29:50;99311.03;;;14.62;73.43
47166;BME280;32930;51.112;13.762;2023-05-16T12:32:21;99317.88;;;14.64;73.92
47166;BME280;32930;51.112;13.762;2023-05-16T12:34:52;99318.59;;;14.74;73.02
47166;BME280;32930;51.112;13.762;2023-05-16T12:37:19;99314.25;;;14.77;74.11
47166;BME280;32930;51.112;13.762;2023-05-16T12:39:45;99313.66;;;14.58;73.71
47166;BME280;32930;51.112;13.762;2023-05-16T12:42:12;99311.28;;;14.43;72.44
47166;BME280;32930;51.112;13.762;2023-05-16T12:44:39;99320.75;;;14.44;72.80
47166;BME280;32930;51.112;13.762;2023-05-16T12:47:12;99318.94;;;14.49;73.01
47166;BME280;32930;51.112;13.762;2023-05-16T12:49:44;99324.03;;;14.55;72.89
47166;BME280;32930;51.112;13.762;2023-05-16T12:52:16;99330.19;;;14.45;73.28
47166;BME280;32930;51.112;13.762;2023-05-16T12:54:44;99327.59;;;14.45;73.43
47166;BME280;32930;51.112;13.762;2023-05-16T12:57:09;99320.69;;;14.47;74.74
47166;BME280;32930;51.112;13.762;2023-05-16T12:59:35;99336.13;;;14.53;74.76
47166;BME280;32930;51.112;13.762;2023-05-16T13:02:01;99328.38;;;14.53;74.07
47166;BME280;32930;51.112;13.762;2023-05-16T13:04:28;99342.06;;;14.60;74.72
47166;BME280;32930;51.112;13.762;2023-05-16T13:06:54;99343.66;;;14.66;75.49
47166;BME280;32930;51.112;13.762;2023-05-16T13:09:20;99347.81;;;14.77;75.62
47166;BME280;32930;51.112;13.762;2023-05-16T13:11:46;99349.63;;;14.72;74.42
47166;BME280;32930;51.112;13.762;2023-05-16T13:14:12;99351.38;;;14.69;73.60
47166;BME280;32930;51.112;13.762;2023-05-16T13:16:38;99354.53;;;14.89;73.95
47166;BME280;32930;51.112;13.762;2023-05-16T13:19:03;99360.72;;;14.79;75.10
47166;BME280;32930;51.112;13.762;2023-05-16T13:21:29;99357.25;;;14.78;75.18
47166;BME280;32930;51.112;13.762;2023-05-16T13:23:57;99353.91;;;14.73;74.59
47166;BME280;32930;51.112;13.762;2023-05-16T13:26:23;99361.59;;;14.76;73.93
47166;BME280;32930;51.112;13.762;2023-05-16T13:28:48;99361.66;;;14.72;74.56
47166;BME280;32930;51.112;13.762;2023-05-16T13:31:17;99363.25;;;14.82;74.31
47166;BME280;32930;51.112;13.762;2023-05-16T13:33:43;99362.59;;;14.68;74.11
47166;BME280;32930;51.112;13.762;2023-05-16T13:36:09;99367.69;;;14.72;74.34
47166;BME280;32930;51.112;13.762;2023-05-16T13:38:41;99361.66;;;14.73;74.23
47166;BME280;32930;51.112;13.762;2023-05-16T13:41:07;99370.94;;;14.85;73.71
47166;BME280;32930;51.112;13.762;2023-05-16T13:43:32;99366.53;;;14.90;73.36
47166;BME280;32930;51.112;13.762;2023-05-16T13:45:58;99369.19;;;14.87;73.46
47166;BME280;32930;51.112;13.762;2023-05-16T13:48:23;99362.53;;;14.72;73.15
47166;BME280;32930;51.112;13.762;2023-05-16T13:50:49;99364.75;;;14.95;71.39
47166;BME280;32930;51.112;13.762;2023-05-16T13:53:16;99366.13;;;14.60;73.23
47166;BME280;32930;51.112;13.762;2023-05-16T13:55:41;99365.88;;;14.79;72.84
47166;BME280;32930;51.112;13.762;2023-05-16T13:58:07;99367.84;;;14.63;73.81
47166;BME280;32930;51.112;13.762;2023-05-16T14:00:32;99371.22;;;14.67;73.96
47166;BME280;32930;51.112;13.762;2023-05-16T14:02:58;99365.88;;;14.77;74.54
47166;BME280;32930;51.112;13.762;2023-05-16T14:05:24;99368.50;;;14.74;73.30
47166;BME280;32930;51.112;13.762;2023-05-16T14:07:50;99358.19;;;14.76;73.26
47166;BME280;32930;51.112;13.762;2023-05-16T14:10:19;99355.72;;;14.65;72.74
47166;BME280;32930;51.112;13.762;2023-05-16T14:12:45;99360.19;;;14.55;73.28
47166;BME280;32930;51.112;13.762;2023-05-16T14:15:11;99350.75;;;14.53;72.31
47166;BME280;32930;51.112;13.762;2023-05-16T14:17:39;99352.34;;;14.62;72.06
47166;BME280;32930;51.112;13.762;2023-05-16T14:20:05;99355.78;;;14.64;71.70
47166;BME280;32930;51.112;13.762;2023-05-16T14:22:36;99353.19;;;14.62;72.87
47166;BME280;32930;51.112;13.762;2023-05-16T14:25:01;99361.94;;;14.50;74.23
47166;BME280;32930;51.112;13.762;2023-05-16T14:27:30;99356.75;;;14.56;73.02
47166;BME280;32930;51.112;13.762;2023-05-16T14:29:56;99356.91;;;14.41;72.90
47166;BME280;32930;51.112;13.762;2023-05-16T14:32:23;99364.78;;;14.32;73.07
47166;BME280;32930;51.112;13.762;2023-05-16T14:34:48;99368.00;;;14.48;73.55
47166;BME280;32930;51.112;13.762;2023-05-16T14:37:14;99374.19;;;14.36;72.38
47166;BME280;32930;51.112;13.762;2023-05-16T14:39:41;99372.44;;;14.36;72.32
47166;BME280;32930;51.112;13.762;2023-05-16T14:42:11;99367.25;;;14.40;71.30
47166;BME280;32930;51.112;13.762;2023-05-16T14:44:37;99362.06;;;14.41;71.35
47166;BME280;32930;51.112;13.762;2023-05-16T14:47:03;99351.19;;;14.18;71.21
47166;BME280;32930;51.112;13.762;2023-05-16T14:49:28;99365.91;;;14.09;71.72
47166;BME280;32930;51.112;13.762;2023-05-16T14:51:54;99359.88;;;14.09;71.83
47166;BME280;32930;51.112;13.762;2023-05-16T14:54:21;99365.84;;;14.14;72.18
47166;BME280;32930;51.112;13.762;2023-05-16T14:56:46;99363.16;;;14.22;71.86
47166;BME280;32930;51.112;13.762;2023-05-16T15:21:30;99399.81;;;14.47;70.21
47166;BME280;32930;51.112;13.762;2023-05-16T15:24:01;99398.97;;;14.46;72.08
47166;BME280;32930;51.112;13.762;2023-05-16T15:26:27;99395.56;;;14.46;71.00
47166;BME280;32930;51.112;13.762;2023-05-16T15:28:53;99386.53;;;14.11;71.37
47166;BME280;32930;51.112;13.762;2023-05-16T15:31:23;99389.63;;;14.39;71.78
47166;BME280;32930;51.112;13.762;2023-05-16T17:16:39;99397.22;;;15.12;65.35
47166;BME280;32930;51.112;13.762;2023-05-16T17:19:13;99406.97;;;14.94;65.07
47166;BME280;32930;51.112;13.762;2023-05-16T17:21:53;99407.88;;;14.90;64.56
47166;BME280;32930;51.112;13.762;2023-05-16T17:24:42;99406.88;;;14.99;64.79
47166;BME280;32930;51.112;13.762;2023-05-16T17:27:19;99406.84;;;15.00;65.06
47166;BME280;32930;51.112;13.762;2023-05-16T17:29:54;99403.38;;;15.03;64.81
47166;BME280;32930;51.112;13.762;2023-05-16T17:32:23;99404.31;;;14.97;66.36
47166;BME280;32930;51.112;13.762;2023-05-16T17:34:53;99404.22;;;15.05;64.96
47166;BME280;32930;51.112;13.762;2023-05-16T17:37:20;99404.19;;;15.06;67.87
47166;BME280;32930;51.112;13.762;2023-05-16T17:40:09;99398.34;;;14.95;65.53
47166;BME280;32930;51.112;13.762;2023-05-16T17:42:42;99402.53;;;15.02;66.19
47166;BME280;32930;51.112;13.762;2023-05-16T17:45:18;99402.53;;;15.02;65.48
47166;BME280;32930;51.112;13.762;2023-05-16T17:47:43;99396.75;;;14.87;65.76
47166;BME280;32930;51.112;13.762;2023-05-16T17:50:09;99399.16;;;14.97;66.16
47166;BME280;32930;51.112;13.762;2023-05-16T17:52:58;99407.91;;;14.87;66.06
47166;BME280;32930;51.112;13.762;2023-05-16T17:55:26;99408.66;;;14.95;68.32
47166;BME280;32930;51.112;13.762;2023-05-16T17:57:51;99400.00;;;14.99;68.73
47166;BME280;32930;51.112;13.762;2023-05-16T18:00:17;99409.59;;;14.91;67.19
47166;BME280;32930;51.112;13.762;2023-05-16T18:02:43;99411.22;;;14.97;65.71
47166;BME280;32930;51.112;13.762;2023-05-16T18:05:11;99417.31;;;14.94;67.31
47166;BME280;32930;51.112;13.762;2023-05-16T18:07:40;99413.88;;;14.92;66.88
47166;BME280;32930;51.112;13.762;2023-05-16T18:10:06;99418.28;;;14.84;67.24
47166;BME280;32930;51.112;13.762;2023-05-16T18:12:33;99409.81;;;14.76;65.19
47166;BME280;32930;51.112;13.762;2023-05-16T18:14:59;99411.38;;;14.84;66.83
47166;BME280;32930;51.112;13.762;2023-05-16T18:36:51;99435.06;;;14.52;69.32
47166;BME280;32930;51.112;13.762;2023-05-16T18:39:17;99427.38;;;14.46;69.70
47166;BME280;32930;51.112;13.762;2023-05-16T18:41:45;99424.91;;;14.37;70.37
47166;BME280;32930;51.112;13.762;2023-05-16T18:44:18;99439.50;;;14.40;70.82
47166;BME280;32930;51.112;13.762;2023-05-16T18:49:45;99440.72;;;14.09;70.36
47166;BME280;32930;51.112;13.762;2023-05-16T18:55:24;99438.16;;;14.09;69.89
47166;BME280;32930;51.112;13.762;2023-05-16T18:57:56;99440.00;;;13.97;70.77
47166;BME280;32930;51.112;13.762;2023-05-16T19:03:22;99449.63;;;13.81;71.34
47166;BME280;32930;51.112;13.762;2023-05-16T19:08:29;99454.78;;;13.81;71.92
47166;BME280;32930;51.112;13.762;2023-05-16T19:21:12;99478.25;;;13.45;73.91
47166;BME280;32930;51.112;13.762;2023-05-16T19:23:43;99480.03;;;13.40;74.38
47166;BME280;32930;51.112;13.762;2023-05-16T19:47:48;99484.53;;;13.03;76.77
47166;BME280;32930;51.112;13.762;2023-05-16T19:50:17;99485.44;;;12.96;76.99
47166;BME280;32930;51.112;13.762;2023-05-16T19:52:50;99487.94;;;13.04;76.48
47166;BME280;32930;51.112;13.762;2023-05-16T19:55:46;99499.16;;;12.95;76.81
47166;BME280;32930;51.112;13.762;2023-05-16T20:01:22;99502.66;;;12.83;77.05
47166;BME280;32930;51.112;13.762;2023-05-16T20:06:53;99507.84;;;12.69;76.60
47166;BME280;32930;51.112;13.762;2023-05-16T21:03:10;99526.84;;;12.28;65.84
47166;BME280;32930;51.112;13.762;2023-05-16T21:05:39;99529.44;;;12.24;66.35
47166;BME280;32930;51.112;13.762;2023-05-16T21:08:04;99531.16;;;12.10;65.86
47166;BME280;32930;51.112;13.762;2023-05-16T21:10:30;99535.47;;;12.11;65.63
47166;BME280;32930;51.112;13.762;2023-05-16T21:12:55;99531.16;;;12.06;65.92
47166;BME280;32930;51.112;13.762;2023-05-16T21:15:21;99541.44;;;12.13;65.23
47166;BME280;32930;51.112;13.762;2023-05-16T21:17:46;99538.03;;;12.03;65.30
47166;BME280;32930;51.112;13.762;2023-05-16T22:33:23;99587.72;;;11.70;58.25
47166;BME280;32930;51.112;13.762;2023-05-16T22:35:48;99583.41;;;11.64;59.51
47166;BME280;32930;51.112;13.762;2023-05-16T22:38:14;99599.66;;;11.63;57.70
47166;BME280;32930;51.112;13.762;2023-05-16T22:40:39;99592.81;;;11.68;58.67
47166;BME280;32930;51.112;13.762;2023-05-16T22:43:08;99597.94;;;11.48;59.07
47166;BME280;32930;51.112;13.762;2023-05-16T22:45:34;99591.94;;;11.49;59.09
47166;BME280;32930;51.112;13.762;2023-05-16T22:48:00;99593.63;;;11.36;59.63
47166;BME280;32930;51.112;13.762;2023-05-16T22:50:25;99598.72;;;11.27;59.65
47166;BME280;32930;51.112;13.762;2023-05-16T22:55:22;99600.44;;;11.19;60.20
47166;BME280;32930;51.112;13.762;2023-05-16T22:57:48;99601.28;;;11.24;60.56
47166;BME280;32930;51.112;13.762;2023-05-16T23:00:13;99615.78;;;11.11;60.43
47166;BME280;32930;51.112;13.762;2023-05-16T23:02:39;99617.47;;;11.03;60.83
47166;BME280;32930;51.112;13.762;2023-05-16T23:05:05;99608.88;;;10.97;60.90
47166;BME280;32930;51.112;13.762;2023-05-16T23:07:30;99621.69;;;10.90;60.97
47166;BME280;32930;51.112;13.762;2023-05-16T23:09:56;99628.50;;;10.84;60.81
47166;BME280;32930;51.112;13.762;2023-05-16T23:12:21;99624.19;;;10.75;61.29
47166;BME280;32930;51.112;13.762;2023-05-16T23:14:49;99635.31;;;10.79;61.98
47166;BME280;32930;51.112;13.762;2023-05-16T23:17:15;99637.84;;;10.73;62.02
47166;BME280;32930;51.112;13.762;2023-05-16T23:19:40;99643.84;;;10.73;61.47
47166;BME280;32930;51.112;13.762;2023-05-16T23:22:06;99646.28;;;10.58;62.20
47166;BME280;32930;51.112;13.762;2023-05-16T23:24:31;99642.06;;;10.60;62.17
47166;BME280;32930;51.112;13.762;2023-05-16T23:26:57;99637.75;;;10.57;62.86
47166;BME280;32930;51.112;13.762;2023-05-16T23:29:22;99641.09;;;10.46;62.71
47166;BME280;32930;51.112;13.762;2023-05-16T23:31:48;99646.16;;;10.39;63.34
47166;BME280;32930;51.112;13.762;2023-05-16T23:34:13;99640.22;;;10.43;63.20
47166;BME280;32930;51.112;13.762;2023-05-16T23:36:39;99653.84;;;10.36;63.07
47166;BME280;32930;51.112;13.762;2023-05-16T23:39:04;99647.84;;;10.36;63.27
47166;BME280;32930;51.112;13.762;2023-05-16T23:41:32;99656.41;;;10.36;63.26
47166;BME280;32930;51.112;13.762;2023-05-16T23:46:26;99660.69;;;10.34;63.06
47166;BME280;32930;51.112;13.762;2023-05-16T23:48:51;99663.19;;;10.28;63.04
47166;BME280;32930;51.112;13.762;2023-05-16T23:51:17;99665.59;;;10.14;63.55
47166;BME280;32930;51.112;13.762;2023-05-16T23:53:42;99665.56;;;10.11;63.40
47166;BME280;32930;51.112;13.762;2023-05-16T23:56:08;99665.59;;;10.17;63.33
47166;BME280;32930;51.112;13.762;2023-05-16T23:58:33;99663.78;;;10.03;63.34
